createdAt,value
2017-10-29T00:00:58.242Z,998.32
2017-10-29T00:01:58.217Z,998.28
2017-10-29T00:02:58.190Z,998.19
2017-10-29T00:03:58.170Z,998.23
2017-10-29T00:04:58.152Z,998.18
2017-10-29T00:05:58.132Z,998.09
2017-10-29T00:06:58.102Z,998.11
2017-10-29T00:07:58.081Z,998.09
2017-10-29T00:08:58.058Z,998
2017-10-29T00:09:58.032Z,997.98
2017-10-29T00:10:58.009Z,997.99
2017-10-29T00:11:57.989Z,997.94
2017-10-29T00:12:57.970Z,997.95
2017-10-29T00:13:57.942Z,997.84
2017-10-29T00:14:57.920Z,997.9
2017-10-29T00:15:57.896Z,997.89
2017-10-29T00:16:57.871Z,997.79
2017-10-29T00:17:57.854Z,997.97
2017-10-29T00:18:57.832Z,997.82
2017-10-29T00:19:57.803Z,997.87
2017-10-29T00:20:57.780Z,997.74
2017-10-29T00:21:57.758Z,997.79
2017-10-29T00:22:57.733Z,997.76
2017-10-29T00:23:57.710Z,997.74
2017-10-29T00:24:57.685Z,997.7
2017-10-29T00:25:57.662Z,997.83
2017-10-29T00:26:57.641Z,997.8
2017-10-29T00:27:57.618Z,997.79
2017-10-29T00:28:57.592Z,997.86
2017-10-29T00:29:57.573Z,997.74
2017-10-29T00:30:57.551Z,997.77
2017-10-29T00:31:57.528Z,997.83
2017-10-29T00:32:57.506Z,997.8
2017-10-29T00:33:57.483Z,997.75
2017-10-29T00:34:57.461Z,997.81
2017-10-29T00:35:57.436Z,997.7
2017-10-29T00:36:57.412Z,997.83
2017-10-29T00:37:57.389Z,997.84
2017-10-29T00:38:57.369Z,997.73
2017-10-29T00:39:57.345Z,997.77
2017-10-29T00:40:57.320Z,997.82
2017-10-29T00:41:57.300Z,997.75
2017-10-29T00:42:57.275Z,997.82
2017-10-29T00:43:57.253Z,997.71
2017-10-29T00:44:57.227Z,997.71
2017-10-29T00:45:57.208Z,997.56
2017-10-29T00:46:57.181Z,997.58
2017-10-29T00:47:57.154Z,997.57
2017-10-29T00:48:57.174Z,997.53
2017-10-29T00:49:57.114Z,997.66
2017-10-29T00:50:57.088Z,997.56
2017-10-29T00:51:57.068Z,997.47
2017-10-29T00:52:57.044Z,997.56
2017-10-29T00:53:57.023Z,997.49
2017-10-29T00:54:56.998Z,997.59
2017-10-29T00:55:56.975Z,997.51
2017-10-29T00:56:56.952Z,997.53
2017-10-29T00:57:56.931Z,997.41
2017-10-29T00:58:56.906Z,997.33
2017-10-29T00:59:56.882Z,997.45
2017-10-29T01:00:56.859Z,997.32
2017-10-29T01:01:56.836Z,997.27
2017-10-29T01:02:56.813Z,997.33
2017-10-29T01:03:56.788Z,997.34
2017-10-29T01:04:56.769Z,997.27
2017-10-29T01:05:56.744Z,997.2
2017-10-29T01:06:56.718Z,997.25
2017-10-29T01:07:56.696Z,997.29
2017-10-29T01:08:56.674Z,997.21
2017-10-29T01:09:56.651Z,997.32
2017-10-29T01:10:56.636Z,997.21
2017-10-29T01:11:56.604Z,997.24
2017-10-29T01:12:56.579Z,996.92
2017-10-29T01:13:56.564Z,997.1
2017-10-29T01:14:56.538Z,997.05
2017-10-29T01:15:56.515Z,996.97
2017-10-29T01:16:56.489Z,996.91
2017-10-29T01:17:56.466Z,996.89
2017-10-29T01:18:56.442Z,996.98
2017-10-29T01:19:56.418Z,996.97
2017-10-29T01:20:56.394Z,997.01
2017-10-29T01:21:56.372Z,996.85
2017-10-29T01:22:56.353Z,996.9
2017-10-29T01:23:56.327Z,996.98
2017-10-29T01:24:56.305Z,997.02
2017-10-29T01:25:56.282Z,996.87
2017-10-29T01:26:56.260Z,996.84
2017-10-29T01:27:56.237Z,996.85
2017-10-29T01:28:56.217Z,996.76
2017-10-29T01:29:56.188Z,996.68
2017-10-29T01:30:56.165Z,996.78
2017-10-29T01:31:56.141Z,996.75
2017-10-29T01:32:56.120Z,996.69
2017-10-29T01:33:56.093Z,996.68
2017-10-29T01:34:56.072Z,996.71
2017-10-29T01:35:56.048Z,996.46
2017-10-29T01:36:56.027Z,996.68
2017-10-29T01:37:56.000Z,996.67
2017-10-29T01:38:55.982Z,996.7
2017-10-29T01:39:55.956Z,996.71
2017-10-29T01:40:55.935Z,996.72
2017-10-29T01:41:55.912Z,996.59
2017-10-29T01:42:55.886Z,996.71
2017-10-29T01:43:55.871Z,996.71
2017-10-29T01:44:55.838Z,996.74
2017-10-29T01:45:55.817Z,996.58
2017-10-29T01:46:55.796Z,996.54
2017-10-29T01:47:55.770Z,996.53
2017-10-29T01:48:55.745Z,996.54
2017-10-29T01:49:55.727Z,996.52
2017-10-29T01:50:55.701Z,996.39
2017-10-29T01:51:55.677Z,996.35
2017-10-29T01:52:55.868Z,996.47
2017-10-29T01:53:55.633Z,996.49
2017-10-29T01:54:55.608Z,996.4
2017-10-29T01:55:55.584Z,996.46
2017-10-29T01:56:55.562Z,996.3
2017-10-29T01:57:55.538Z,996.39
2017-10-29T01:58:55.522Z,996.41
2017-10-29T01:59:55.492Z,996.28
2017-10-29T02:00:55.468Z,995.99
2017-10-29T02:01:55.445Z,996.25
2017-10-29T02:02:55.423Z,996.17
2017-10-29T02:03:55.402Z,996.29
2017-10-29T02:04:55.378Z,996.31
2017-10-29T02:05:55.354Z,996.32
2017-10-29T02:06:55.683Z,996.19
2017-10-29T02:07:55.308Z,996.36
2017-10-29T02:08:55.288Z,996.25
2017-10-29T02:09:55.261Z,996.21
2017-10-29T02:10:55.240Z,996.4
2017-10-29T02:11:55.218Z,996.46
2017-10-29T02:12:55.192Z,996.04
2017-10-29T02:13:55.171Z,996.21
2017-10-29T02:14:55.146Z,996.15
2017-10-29T02:15:55.121Z,995.98
2017-10-29T02:16:55.101Z,995.93
2017-10-29T02:17:55.075Z,996.09
2017-10-29T02:18:55.066Z,996.05
2017-10-29T02:19:55.029Z,995.96
2017-10-29T02:20:55.008Z,996
2017-10-29T02:21:54.988Z,995.95
2017-10-29T02:22:54.957Z,996
2017-10-29T02:23:54.938Z,996.1
2017-10-29T02:24:54.913Z,996
2017-10-29T02:25:54.889Z,995.99
2017-10-29T02:26:54.868Z,995.86
2017-10-29T02:27:54.844Z,996.02
2017-10-29T02:28:54.818Z,995.95
2017-10-29T02:29:54.799Z,995.82
2017-10-29T02:30:54.774Z,995.98
2017-10-29T02:31:54.751Z,995.94
2017-10-29T02:32:54.730Z,996.04
2017-10-29T02:33:54.704Z,995.95
2017-10-29T02:34:54.681Z,995.79
2017-10-29T02:35:54.661Z,996.11
2017-10-29T02:36:54.634Z,996.22
2017-10-29T02:37:54.614Z,996.22
2017-10-29T02:38:54.591Z,996.13
2017-10-29T02:39:54.567Z,996.17
2017-10-29T02:40:54.541Z,996.14
2017-10-29T02:41:54.519Z,996.22
2017-10-29T02:42:54.494Z,996.13
2017-10-29T02:43:54.470Z,996.22
2017-10-29T02:44:54.452Z,996.08
2017-10-29T02:45:54.426Z,996.21
2017-10-29T02:46:54.398Z,996.16
2017-10-29T02:47:54.382Z,996.12
2017-10-29T02:48:54.354Z,996.11
2017-10-29T02:49:54.330Z,996.18
2017-10-29T02:50:54.307Z,996.2
2017-10-29T02:51:54.283Z,996.07
2017-10-29T02:52:54.261Z,996.11
2017-10-29T02:53:54.247Z,996.16
2017-10-29T02:54:54.216Z,996.08
2017-10-29T02:55:54.202Z,996.14
2017-10-29T02:56:54.169Z,996.09
2017-10-29T02:57:54.148Z,996.01
2017-10-29T02:58:54.123Z,996.13
2017-10-29T02:59:54.097Z,996.1
2017-10-29T03:00:54.078Z,996.09
2017-10-29T03:01:54.048Z,996.24
2017-10-29T03:02:54.026Z,996.19
2017-10-29T03:03:54.002Z,996.26
2017-10-29T03:04:53.983Z,996.39
2017-10-29T03:05:53.960Z,996.37
2017-10-29T03:06:53.933Z,996.41
2017-10-29T03:07:53.910Z,996.5
2017-10-29T03:08:53.887Z,996.49
2017-10-29T03:09:53.864Z,996.52
2017-10-29T03:10:53.841Z,996.65
2017-10-29T03:11:53.817Z,996.74
2017-10-29T03:12:53.790Z,996.67
2017-10-29T03:13:53.770Z,996.93
2017-10-29T03:14:53.745Z,996.89
2017-10-29T03:15:53.723Z,997.21
2017-10-29T03:16:53.698Z,997.07
2017-10-29T03:17:53.676Z,997.04
2017-10-29T03:18:53.652Z,997.39
2017-10-29T03:19:53.628Z,997.28
2017-10-29T03:20:53.605Z,997.35
2017-10-29T03:21:53.582Z,997.16
2017-10-29T03:22:53.558Z,997.41
2017-10-29T03:23:53.533Z,997.45
2017-10-29T03:24:53.512Z,997.31
2017-10-29T03:25:53.488Z,997.36
2017-10-29T03:26:53.464Z,997.2
2017-10-29T03:27:53.441Z,997.26
2017-10-29T03:28:53.418Z,997.19
2017-10-29T03:29:53.394Z,997.34
2017-10-29T03:30:53.370Z,997.38
2017-10-29T03:31:53.356Z,997.36
2017-10-29T03:32:53.322Z,997.34
2017-10-29T03:33:53.304Z,997.03
2017-10-29T03:34:53.273Z,997.01
2017-10-29T03:35:53.251Z,997.11
2017-10-29T03:36:53.228Z,997.17
2017-10-29T03:37:53.206Z,997.27
2017-10-29T03:38:53.181Z,997.38
2017-10-29T03:39:53.157Z,997.32
2017-10-29T03:40:53.135Z,997.34
2017-10-29T03:41:53.113Z,997.33
2017-10-29T03:42:53.086Z,997.18
2017-10-29T03:43:53.064Z,997.29
2017-10-29T03:44:53.040Z,997.3
2017-10-29T03:45:53.015Z,997.29
2017-10-29T03:46:52.992Z,997.38
2017-10-29T03:47:52.967Z,997.34
2017-10-29T03:48:52.946Z,997.35
2017-10-29T03:49:52.921Z,997.39
2017-10-29T03:50:52.896Z,997.39
2017-10-29T03:51:52.883Z,997.44
2017-10-29T03:52:52.847Z,997.38
2017-10-29T03:53:52.829Z,997.42
2017-10-29T03:54:52.802Z,997.39
2017-10-29T03:55:52.779Z,997.43
2017-10-29T03:56:52.755Z,997.43
2017-10-29T03:57:52.730Z,997.43
2017-10-29T03:58:52.709Z,997.43
2017-10-29T03:59:52.682Z,997.4
2017-10-29T04:00:52.658Z,997.54
2017-10-29T04:01:52.648Z,997.39
2017-10-29T04:02:52.610Z,997.45
2017-10-29T04:03:52.592Z,997.4
2017-10-29T04:04:52.569Z,997.26
2017-10-29T04:05:52.548Z,997.38
2017-10-29T04:06:52.515Z,997.43
2017-10-29T04:07:52.492Z,997.36
2017-10-29T04:08:52.469Z,997.48
2017-10-29T04:09:52.446Z,997.49
2017-10-29T04:10:52.422Z,997.57
2017-10-29T04:11:52.397Z,997.6
2017-10-29T04:12:52.376Z,997.48
2017-10-29T04:13:52.349Z,997.49
2017-10-29T04:14:52.323Z,997.53
2017-10-29T04:15:52.302Z,997.52
2017-10-29T04:16:52.277Z,997.4
2017-10-29T04:17:52.253Z,997.51
2017-10-29T04:18:52.230Z,997.55
2017-10-29T04:19:52.205Z,997.62
2017-10-29T04:20:52.186Z,997.55
2017-10-29T04:21:52.160Z,997.64
2017-10-29T04:22:52.133Z,997.68
2017-10-29T04:23:52.111Z,997.68
2017-10-29T04:24:52.087Z,997.74
2017-10-29T04:25:52.071Z,997.74
2017-10-29T04:26:52.039Z,997.75
2017-10-29T04:27:52.016Z,997.88
2017-10-29T04:28:51.992Z,997.79
2017-10-29T04:29:51.967Z,997.74
2017-10-29T04:30:51.946Z,997.72
2017-10-29T04:31:51.924Z,997.87
2017-10-29T04:32:51.896Z,997.7
2017-10-29T04:33:51.874Z,997.89
2017-10-29T04:34:51.849Z,997.99
2017-10-29T04:35:52.176Z,997.95
2017-10-29T04:36:51.801Z,998.03
2017-10-29T04:37:51.782Z,997.94
2017-10-29T04:38:51.753Z,997.97
2017-10-29T04:39:51.729Z,997.94
2017-10-29T04:40:51.706Z,997.88
2017-10-29T04:41:51.682Z,998
2017-10-29T04:42:51.661Z,998.1
2017-10-29T04:43:51.633Z,998.02
2017-10-29T04:44:51.611Z,998.09
2017-10-29T04:45:51.589Z,998.02
2017-10-29T04:46:51.571Z,998.12
2017-10-29T04:47:51.540Z,998.1
2017-10-29T04:48:51.516Z,998.24
2017-10-29T04:49:51.494Z,998.11
2017-10-29T04:50:51.466Z,998.3
2017-10-29T04:51:51.447Z,998.26
2017-10-29T04:52:51.423Z,998.14
2017-10-29T04:53:51.398Z,998.24
2017-10-29T04:54:51.374Z,998.17
2017-10-29T04:55:51.349Z,998.36
2017-10-29T04:56:51.327Z,998.45
2017-10-29T04:57:51.303Z,998.5
2017-10-29T04:58:51.279Z,998.44
2017-10-29T04:59:51.255Z,998.38
2017-10-29T05:00:51.231Z,998.64
2017-10-29T05:01:51.209Z,998.52
2017-10-29T05:02:51.184Z,998.45
2017-10-29T05:03:51.176Z,998.47
2017-10-29T05:04:51.136Z,998.3
2017-10-29T05:05:51.119Z,998.64
2017-10-29T05:06:51.090Z,998.46
2017-10-29T05:07:51.072Z,998.56
2017-10-29T05:08:51.041Z,998.73
2017-10-29T05:09:51.018Z,998.59
2017-10-29T05:10:50.999Z,998.7
2017-10-29T05:11:50.972Z,998.79
2017-10-29T05:12:50.947Z,998.67
2017-10-29T05:13:50.931Z,998.83
2017-10-29T05:14:50.901Z,998.83
2017-10-29T05:15:50.879Z,998.76
2017-10-29T05:16:50.853Z,998.9
2017-10-29T05:17:50.828Z,998.82
2017-10-29T05:18:50.805Z,998.92
2017-10-29T05:19:50.784Z,999.09
2017-10-29T05:20:50.759Z,999.04
2017-10-29T05:21:50.734Z,998.98
2017-10-29T05:22:50.712Z,998.99
2017-10-29T05:23:50.687Z,999.05
2017-10-29T05:24:50.666Z,999.08
2017-10-29T05:25:50.642Z,999.03
2017-10-29T05:26:50.615Z,999.16
2017-10-29T05:27:50.595Z,999.11
2017-10-29T05:28:50.573Z,999.13
2017-10-29T05:29:50.546Z,999.15
2017-10-29T05:30:50.523Z,999.2
2017-10-29T05:31:50.500Z,999.21
2017-10-29T05:32:50.474Z,999.24
2017-10-29T05:33:50.453Z,999.35
2017-10-29T05:34:50.429Z,999.34
2017-10-29T05:35:50.403Z,999.26
2017-10-29T05:36:50.380Z,999.19
2017-10-29T05:37:50.361Z,999.26
2017-10-29T05:38:50.329Z,999.29
2017-10-29T05:39:50.308Z,999.32
2017-10-29T05:40:50.285Z,999.48
2017-10-29T05:41:50.262Z,999.61
2017-10-29T05:42:50.234Z,999.38
2017-10-29T05:43:50.211Z,999.54
2017-10-29T05:44:50.191Z,999.3
2017-10-29T05:45:50.161Z,999.54
2017-10-29T05:46:50.143Z,999.56
2017-10-29T05:47:50.119Z,999.49
2017-10-29T05:48:50.094Z,999.49
2017-10-29T05:49:50.072Z,999.47
2017-10-29T05:50:50.051Z,999.52
2017-10-29T05:51:50.020Z,999.55
2017-10-29T05:52:49.998Z,999.67
2017-10-29T05:53:49.973Z,999.53
2017-10-29T05:54:49.950Z,999.59
2017-10-29T05:55:49.928Z,999.74
2017-10-29T05:56:49.904Z,999.73
2017-10-29T05:57:49.881Z,999.87
2017-10-29T05:58:49.862Z,999.89
2017-10-29T05:59:49.835Z,999.84
2017-10-29T06:00:49.808Z,999.99
2017-10-29T06:01:49.786Z,999.89
2017-10-29T06:02:49.763Z,999.9
2017-10-29T06:03:49.735Z,1000.12
2017-10-29T06:04:49.711Z,1000.17
2017-10-29T06:05:49.687Z,1000.09
2017-10-29T06:06:49.670Z,1000.11
2017-10-29T06:07:49.643Z,1000.21
2017-10-29T06:08:49.616Z,1000.28
2017-10-29T06:09:49.592Z,1000.17
2017-10-29T06:10:49.597Z,1000.27
2017-10-29T06:11:49.543Z,1000.21
2017-10-29T06:12:49.518Z,1000.13
2017-10-29T06:13:49.496Z,1000.38
2017-10-29T06:14:49.473Z,1000.31
2017-10-29T06:15:49.452Z,1000.35
2017-10-29T06:16:49.423Z,1000.32
2017-10-29T06:17:49.404Z,1000.41
2017-10-29T06:18:49.375Z,1000.43
2017-10-29T06:19:49.351Z,1000.39
2017-10-29T06:20:49.328Z,1000.49
2017-10-29T06:21:49.300Z,1000.49
2017-10-29T06:22:49.277Z,1000.64
2017-10-29T06:23:49.254Z,1000.66
2017-10-29T06:24:49.233Z,1000.6
2017-10-29T06:25:49.207Z,1000.64
2017-10-29T06:26:49.184Z,1000.63
2017-10-29T06:27:49.157Z,1000.61
2017-10-29T06:28:49.138Z,1000.72
2017-10-29T06:29:49.109Z,1000.81
2017-10-29T06:30:49.088Z,1000.5
2017-10-29T06:31:49.063Z,1000.84
2017-10-29T06:32:49.040Z,1000.88
2017-10-29T06:33:49.012Z,1000.82
2017-10-29T06:34:48.993Z,1000.89
2017-10-29T06:35:48.967Z,1000.89
2017-10-29T06:36:48.942Z,1000.91
2017-10-29T06:37:48.917Z,1000.96
2017-10-29T06:38:48.895Z,1000.85
2017-10-29T06:39:48.868Z,1000.95
2017-10-29T06:40:48.845Z,1001
2017-10-29T06:41:48.822Z,1001.03
2017-10-29T06:42:48.795Z,1001
2017-10-29T06:43:48.774Z,1000.92
2017-10-29T06:44:48.747Z,1000.76
2017-10-29T06:45:48.726Z,1000.96
2017-10-29T06:46:48.699Z,1001.07
2017-10-29T06:47:48.679Z,1001.18
2017-10-29T06:48:48.655Z,1001.2
2017-10-29T06:49:48.629Z,1001.2
2017-10-29T06:50:48.604Z,1001.21
2017-10-29T06:51:48.579Z,1001.12
2017-10-29T06:52:48.559Z,1001.34
2017-10-29T06:53:48.529Z,1001.3
2017-10-29T06:54:48.512Z,1001.31
2017-10-29T06:55:48.493Z,1001.4
2017-10-29T06:56:48.467Z,1001.24
2017-10-29T06:57:48.439Z,1001.38
2017-10-29T06:58:48.412Z,1001.3
2017-10-29T06:59:48.392Z,1001.39
2017-10-29T07:00:48.365Z,1001.4
2017-10-29T07:01:48.348Z,1001.42
2017-10-29T07:02:48.317Z,1001.43
2017-10-29T07:03:48.296Z,1001.52
2017-10-29T07:04:48.270Z,1001.48
2017-10-29T07:05:48.247Z,1001.55
2017-10-29T07:06:48.263Z,1001.52
2017-10-29T07:07:48.202Z,1001.55
2017-10-29T07:08:48.180Z,1001.7
2017-10-29T07:09:48.180Z,1001.67
2017-10-29T07:10:48.131Z,1001.68
2017-10-29T07:11:48.120Z,1001.71
2017-10-29T07:12:48.087Z,1001.75
2017-10-29T07:13:48.060Z,1001.84
2017-10-29T07:14:48.039Z,1001.85
2017-10-29T07:15:48.014Z,1001.91
2017-10-29T07:16:47.989Z,1001.75
2017-10-29T07:17:47.964Z,1001.85
2017-10-29T07:18:47.943Z,1001.92
2017-10-29T07:19:47.919Z,1001.92
2017-10-29T07:20:47.894Z,1001.94
2017-10-29T07:21:47.873Z,1002.02
2017-10-29T07:22:47.847Z,1002.03
2017-10-29T07:23:47.827Z,1002.1
2017-10-29T07:24:47.800Z,1002.14
2017-10-29T07:25:47.782Z,1002.24
2017-10-29T07:26:47.753Z,1002.12
2017-10-29T07:27:47.730Z,1002.27
2017-10-29T07:28:47.709Z,1002.25
2017-10-29T07:29:47.684Z,1002.28
2017-10-29T07:30:47.661Z,1002.05
2017-10-29T07:31:47.638Z,1002.22
2017-10-29T07:32:47.614Z,1002.31
2017-10-29T07:33:47.593Z,1002.34
2017-10-29T07:34:47.567Z,1002.4
2017-10-29T07:35:47.544Z,1002.41
2017-10-29T07:36:47.522Z,1002.46
2017-10-29T07:37:47.501Z,1002.52
2017-10-29T07:38:47.476Z,1002.5
2017-10-29T07:39:47.455Z,1002.47
2017-10-29T07:40:47.430Z,1002.51
2017-10-29T07:41:47.412Z,1002.52
2017-10-29T07:42:47.378Z,1002.56
2017-10-29T07:43:47.365Z,1002.59
2017-10-29T07:44:47.338Z,1002.65
2017-10-29T07:45:47.336Z,1002.62
2017-10-29T07:46:47.291Z,1002.67
2017-10-29T07:47:47.270Z,1002.67
2017-10-29T07:48:47.248Z,1002.76
2017-10-29T07:49:47.224Z,1002.73
2017-10-29T07:50:47.201Z,1002.79
2017-10-29T07:51:47.179Z,1002.67
2017-10-29T07:52:47.156Z,1002.71
2017-10-29T07:53:47.132Z,1002.62
2017-10-29T07:54:47.112Z,1002.85
2017-10-29T07:55:47.086Z,1002.73
2017-10-29T07:56:47.070Z,1002.84
2017-10-29T07:57:47.040Z,1002.87
2017-10-29T07:58:47.021Z,1002.95
2017-10-29T07:59:46.997Z,1002.94
2017-10-29T08:00:46.971Z,1003.05
2017-10-29T08:01:46.952Z,1003.01
2017-10-29T08:02:46.930Z,1002.96
2017-10-29T08:03:46.907Z,1003.08
2017-10-29T08:04:46.887Z,1003.09
2017-10-29T08:05:46.862Z,1003.11
2017-10-29T08:06:46.840Z,1003.01
2017-10-29T08:07:46.817Z,1003.11
2017-10-29T08:08:46.797Z,1003.08
2017-10-29T08:09:46.773Z,1003.23
2017-10-29T08:10:46.752Z,1003.27
2017-10-29T08:11:46.731Z,1003.21
2017-10-29T08:12:46.710Z,1003.32
2017-10-29T08:13:46.689Z,1003.37
2017-10-29T08:14:46.668Z,1003.36
2017-10-29T08:15:46.641Z,1003.37
2017-10-29T08:16:46.619Z,1003.32
2017-10-29T08:17:46.600Z,1003.56
2017-10-29T08:18:46.574Z,1003.53
2017-10-29T08:19:46.553Z,1003.57
2017-10-29T08:20:46.532Z,1003.46
2017-10-29T08:21:46.509Z,1003.45
2017-10-29T08:22:46.491Z,1003.41
2017-10-29T08:23:46.470Z,1003.5
2017-10-29T08:24:46.444Z,1003.51
2017-10-29T08:25:46.422Z,1003.49
2017-10-29T08:26:46.407Z,1003.58
2017-10-29T08:27:46.380Z,1003.67
2017-10-29T08:28:46.356Z,1003.66
2017-10-29T08:29:46.335Z,1003.66
2017-10-29T08:30:46.319Z,1003.72
2017-10-29T08:31:46.291Z,1003.75
2017-10-29T08:32:46.268Z,1003.71
2017-10-29T08:33:46.247Z,1003.71
2017-10-29T08:34:46.227Z,1003.78
2017-10-29T08:35:46.203Z,1003.72
2017-10-29T08:36:46.181Z,1003.75
2017-10-29T08:37:46.158Z,1003.73
2017-10-29T08:38:46.134Z,1003.72
2017-10-29T08:39:46.115Z,1003.77
2017-10-29T08:40:46.090Z,1003.77
2017-10-29T08:41:46.069Z,1003.74
2017-10-29T08:42:46.047Z,1003.84
2017-10-29T08:43:46.023Z,1003.88
2017-10-29T08:44:46.003Z,1003.8
2017-10-29T08:45:45.982Z,1003.82
2017-10-29T08:46:45.957Z,1003.93
2017-10-29T08:47:45.934Z,1003.89
2017-10-29T08:48:45.913Z,1003.93
2017-10-29T08:49:45.891Z,1004.09
2017-10-29T08:50:45.870Z,1004.08
2017-10-29T08:51:45.846Z,1004.06
2017-10-29T08:52:45.821Z,1004.05
2017-10-29T08:53:45.800Z,1004.11
2017-10-29T08:54:45.777Z,1004.13
2017-10-29T08:55:45.751Z,1004.14
2017-10-29T08:56:45.732Z,1004.11
2017-10-29T08:57:45.708Z,1004.12
2017-10-29T08:58:45.690Z,1004.13
2017-10-29T08:59:45.672Z,1004.19
2017-10-29T09:00:45.642Z,1004.14
2017-10-29T09:01:45.620Z,1004.2
2017-10-29T09:02:45.597Z,1004.14
2017-10-29T09:03:45.579Z,1004.31
2017-10-29T09:04:45.552Z,1004.19
2017-10-29T09:05:45.532Z,1004.3
2017-10-29T09:06:45.508Z,1004.21
2017-10-29T09:07:45.486Z,1004.31
2017-10-29T09:08:45.464Z,1004.37
2017-10-29T09:09:45.448Z,1004.45
2017-10-29T09:10:45.421Z,1004.37
2017-10-29T09:11:45.400Z,1004.23
2017-10-29T09:12:45.373Z,1004.32
2017-10-29T09:13:45.353Z,1004.28
2017-10-29T09:14:45.327Z,1004.3
2017-10-29T09:15:45.309Z,1004.33
2017-10-29T09:16:45.282Z,1004.32
2017-10-29T09:17:45.262Z,1004.37
2017-10-29T09:18:45.239Z,1004.43
2017-10-29T09:19:45.217Z,1004.52
2017-10-29T09:20:45.193Z,1004.61
2017-10-29T09:21:45.170Z,1004.63
2017-10-29T09:22:45.152Z,1004.63
2017-10-29T09:23:45.121Z,1004.61
2017-10-29T09:24:45.451Z,1004.59
2017-10-29T09:25:45.089Z,1004.59
2017-10-29T09:26:45.056Z,1004.77
2017-10-29T09:27:45.031Z,1004.67
2017-10-29T09:28:45.008Z,1004.76
2017-10-29T09:29:44.984Z,1004.76
2017-10-29T09:30:44.967Z,1004.74
2017-10-29T09:31:44.942Z,1004.71
2017-10-29T09:32:44.919Z,1004.71
2017-10-29T09:33:44.896Z,1004.75
2017-10-29T09:34:44.873Z,1004.81
2017-10-29T09:35:44.855Z,1004.75
2017-10-29T09:36:44.841Z,1004.81
2017-10-29T09:37:44.810Z,1004.85
2017-10-29T09:38:44.784Z,1004.84
2017-10-29T09:39:44.760Z,1004.86
2017-10-29T09:40:44.737Z,1005.1
2017-10-29T09:41:44.716Z,1004.95
2017-10-29T09:42:44.692Z,1005.01
2017-10-29T09:43:44.669Z,1004.99
2017-10-29T09:44:44.646Z,1004.92
2017-10-29T09:45:44.633Z,1004.91
2017-10-29T09:46:44.601Z,1004.86
2017-10-29T09:47:44.579Z,1004.98
2017-10-29T09:48:44.556Z,1005.01
2017-10-29T09:49:44.543Z,1004.94
2017-10-29T09:50:44.508Z,1004.98
2017-10-29T09:51:44.492Z,1004.99
2017-10-29T09:52:44.465Z,1004.89
2017-10-29T09:53:44.441Z,1005
2017-10-29T09:54:44.422Z,1005.1
2017-10-29T09:55:44.397Z,1005.07
2017-10-29T09:56:44.373Z,1005.05
2017-10-29T09:57:44.352Z,1005.1
2017-10-29T09:58:44.327Z,1005.11
2017-10-29T09:59:44.306Z,1005.16
2017-10-29T10:00:44.282Z,1005.13
2017-10-29T10:01:44.261Z,1005.19
2017-10-29T10:02:44.240Z,1005.25
2017-10-29T10:03:44.213Z,1005.17
2017-10-29T10:04:44.193Z,1005.28
2017-10-29T10:05:44.168Z,1005.23
2017-10-29T10:06:44.145Z,1005.33
2017-10-29T10:07:44.123Z,1005.3
2017-10-29T10:08:44.107Z,1005.38
2017-10-29T10:09:44.077Z,1005.26
2017-10-29T10:10:44.054Z,1005.43
2017-10-29T10:11:44.035Z,1005.47
2017-10-29T10:12:44.012Z,1005.55
2017-10-29T10:13:43.984Z,1005.52
2017-10-29T10:14:43.962Z,1005.56
2017-10-29T10:15:43.941Z,1005.55
2017-10-29T10:16:43.916Z,1005.59
2017-10-29T10:17:43.903Z,1005.59
2017-10-29T10:18:43.869Z,1005.61
2017-10-29T10:19:43.851Z,1005.57
2017-10-29T10:20:43.829Z,1005.56
2017-10-29T10:21:43.806Z,1005.71
2017-10-29T10:22:43.780Z,1005.75
2017-10-29T10:23:43.757Z,1005.86
2017-10-29T10:24:43.737Z,1005.87
2017-10-29T10:25:43.714Z,1005.84
2017-10-29T10:26:43.698Z,1005.88
2017-10-29T10:27:43.665Z,1005.85
2017-10-29T10:28:43.653Z,1005.99
2017-10-29T10:29:43.617Z,1006.03
2017-10-29T10:30:43.598Z,1006.12
2017-10-29T10:31:43.578Z,1006.06
2017-10-29T10:32:43.552Z,1006.06
2017-10-29T10:33:43.536Z,1006.11
2017-10-29T10:34:43.516Z,1006.22
2017-10-29T10:35:43.481Z,1006.14
2017-10-29T10:36:43.462Z,1006.13
2017-10-29T10:37:43.442Z,1006.1
2017-10-29T10:38:43.412Z,1006.04
2017-10-29T10:39:43.389Z,1006.25
2017-10-29T10:40:43.368Z,1006.26
2017-10-29T10:41:43.344Z,1006.19
2017-10-29T10:42:43.320Z,1006.15
2017-10-29T10:43:43.299Z,1006.27
2017-10-29T10:44:43.274Z,1006.23
2017-10-29T10:45:43.255Z,1006.22
2017-10-29T10:46:43.232Z,1006.18
2017-10-29T10:47:43.237Z,1006.27
2017-10-29T10:48:43.184Z,1006.19
2017-10-29T10:49:43.161Z,1006.13
2017-10-29T10:50:43.140Z,1006.21
2017-10-29T10:51:43.114Z,1006.1
2017-10-29T10:52:43.093Z,1006.13
2017-10-29T10:53:43.070Z,1006.1
2017-10-29T10:54:43.047Z,1006.12
2017-10-29T10:55:43.024Z,1006.13
2017-10-29T10:57:42.976Z,1006.07
2017-10-29T10:58:42.955Z,1006.17
2017-10-29T10:59:42.931Z,1006.22
2017-10-29T11:00:42.906Z,1006.08
2017-10-29T11:01:42.882Z,1006.25
2017-10-29T11:02:42.862Z,1006.33
2017-10-29T11:03:42.838Z,1006.25
2017-10-29T11:04:42.817Z,1006.21
2017-10-29T11:05:42.794Z,1006.18
2017-10-29T11:06:42.770Z,1006.19
2017-10-29T11:07:42.749Z,1006.19
2017-10-29T11:08:42.729Z,1006.24
2017-10-29T11:09:42.702Z,1006.27
2017-10-29T11:10:42.687Z,1006.31
2017-10-29T11:11:42.660Z,1006.23
2017-10-29T11:12:42.983Z,1006.18
2017-10-29T11:13:42.613Z,1006.25
2017-10-29T11:14:42.586Z,1006.23
2017-10-29T11:15:42.565Z,1006.25
2017-10-29T11:16:42.543Z,1006.33
2017-10-29T11:17:42.521Z,1006.28
2017-10-29T11:18:42.496Z,1006.21
2017-10-29T11:19:42.474Z,1006.2
2017-10-29T11:20:42.451Z,1006.36
2017-10-29T11:21:42.427Z,1006.2
2017-10-29T11:22:42.404Z,1006.36
2017-10-29T11:23:42.383Z,1006.24
2017-10-29T11:24:42.366Z,1006.32
2017-10-29T11:25:42.335Z,1006.32
2017-10-29T11:26:42.315Z,1006.33
2017-10-29T11:27:42.292Z,1006.37
2017-10-29T11:28:42.269Z,1006.47
2017-10-29T11:29:42.262Z,1006.28
2017-10-29T11:30:42.228Z,1006.35
2017-10-29T11:31:42.201Z,1006.34
2017-10-29T11:32:42.178Z,1006.34
2017-10-29T11:33:42.159Z,1006.32
2017-10-29T11:34:42.134Z,1006.48
2017-10-29T11:35:42.117Z,1006.57
2017-10-29T11:36:42.089Z,1006.58
2017-10-29T11:37:42.066Z,1006.7
2017-10-29T11:38:42.045Z,1006.85
2017-10-29T11:39:42.026Z,1006.68
2017-10-29T11:40:41.998Z,1007.06
2017-10-29T11:41:41.977Z,1007.11
2017-10-29T11:42:41.958Z,1007.24
2017-10-29T11:43:41.932Z,1006.79
2017-10-29T11:44:41.926Z,1006.67
2017-10-29T11:45:41.884Z,1006.75
2017-10-29T11:46:41.863Z,1006.84
2017-10-29T11:47:41.837Z,1006.83
2017-10-29T11:48:41.815Z,1006.83
2017-10-29T11:49:41.801Z,1006.82
2017-10-29T11:50:41.774Z,1006.91
2017-10-29T11:51:41.744Z,1006.81
2017-10-29T11:52:41.723Z,1006.82
2017-10-29T11:53:41.699Z,1006.76
2017-10-29T11:54:41.672Z,1006.78
2017-10-29T11:55:41.651Z,1006.75
2017-10-29T11:56:41.628Z,1006.73
2017-10-29T11:57:41.602Z,1006.82
2017-10-29T11:58:41.578Z,1006.88
2017-10-29T11:59:41.555Z,1006.79
2017-10-29T12:00:41.535Z,1006.8
2017-10-29T12:01:41.512Z,1006.8
2017-10-29T12:02:41.486Z,1006.81
2017-10-29T12:03:41.462Z,1006.82
2017-10-29T12:04:41.438Z,1006.79
2017-10-29T12:05:41.421Z,1006.86
2017-10-29T12:06:41.389Z,1006.71
2017-10-29T12:07:41.366Z,1006.81
2017-10-29T12:08:41.353Z,1006.75
2017-10-29T12:09:41.319Z,1006.79
2017-10-29T12:10:41.295Z,1006.82
2017-10-29T12:11:41.278Z,1006.87
2017-10-29T12:12:41.247Z,1006.85
2017-10-29T12:13:41.223Z,1006.87
2017-10-29T12:14:41.197Z,1006.93
2017-10-29T12:15:41.174Z,1006.98
2017-10-29T12:16:41.149Z,1006.93
2017-10-29T12:17:41.129Z,1006.89
2017-10-29T12:18:41.102Z,1006.78
2017-10-29T12:19:41.083Z,1006.88
2017-10-29T12:20:41.056Z,1006.99